Time;durP1;ratioP1;P1;durP2;ratioP2;P2;SDS_P1;SDS_P2;PMS_P1;PMS_P2;Temp;Humidity;BMP_temperature;BMP_pressure;BME280_temperature;BME280_humidity;BME280_pressure;Samples;Min_cycle;Max_cycle;Signal;HPM_P1;HPM_P2
2023/05/29 00:01:42;;;;;;;5.00;3.20;;;20.40;48.10;;;;;;5115011;28;20443;-56
2023/05/29 00:04:10;;;;;;;4.50;2.90;;;20.30;48.00;;;;;;5114922;28;20450;-57
2023/05/29 00:06:37;;;;;;;5.73;2.80;;;20.30;47.70;;;;;;5114858;28;20471;-56
2023/05/29 00:09:05;;;;;;;4.17;2.93;;;20.20;48.00;;;;;;5114638;28;20995;-56
2023/05/29 00:11:31;;;;;;;3.50;2.70;;;20.20;47.80;;;;;;5114565;28;20501;-57
2023/05/29 00:13:58;;;;;;;3.73;3.10;;;20.10;47.70;;;;;;5114813;28;20451;-57
2023/05/29 00:16:25;;;;;;;3.70;2.83;;;20.10;47.50;;;;;;5114903;28;20471;-57
2023/05/29 00:18:53;;;;;;;4.33;2.70;;;20.10;47.60;;;;;;5114646;28;20446;-56
2023/05/29 00:21:20;;;;;;;6.67;3.10;;;20.10;47.90;;;;;;5114627;28;20848;-57
2023/05/29 00:23:48;;;;;;;3.60;2.93;;;20.00;48.00;;;;;;5114538;28;20447;-56
2023/05/29 00:26:16;;;;;;;5.20;3.40;;;20.00;47.70;;;;;;5114196;28;20474;-56
2023/05/29 00:28:43;;;;;;;3.10;2.77;;;20.00;47.80;;;;;;5113534;28;20443;-56
2023/05/29 00:31:11;;;;;;;3.40;2.50;;;19.90;47.50;;;;;;5114359;28;20486;-56
2023/05/29 00:33:38;;;;;;;2.83;2.50;;;19.90;47.50;;;;;;5114481;28;20530;-56
2023/05/29 00:36:05;;;;;;;3.20;2.77;;;19.80;47.50;;;;;;5114300;28;20467;-56
2023/05/29 00:38:32;;;;;;;4.27;2.87;;;19.80;47.70;;;;;;5114363;28;20542;-56
2023/05/29 00:40:59;;;;;;;2.60;2.40;;;19.80;47.90;;;;;;5114250;28;20470;-56
2023/05/29 00:43:27;;;;;;;4.53;2.70;;;19.70;47.90;;;;;;5114181;28;20451;-56
2023/05/29 00:45:54;;;;;;;2.90;2.60;;;19.70;48.20;;;;;;5114037;28;21044;-56
2023/05/29 00:48:20;;;;;;;4.80;2.77;;;19.60;48.30;;;;;;5114311;28;20443;-56
2023/05/29 00:50:47;;;;;;;4.43;2.77;;;19.50;48.30;;;;;;5113662;28;21014;-56
2023/05/29 00:53:15;;;;;;;4.33;2.33;;;19.50;48.30;;;;;;5114104;28;20454;-56
2023/05/29 00:55:41;;;;;;;4.33;3.37;;;19.50;48.50;;;;;;5113995;28;20470;-56
2023/05/29 00:58:08;;;;;;;3.97;2.83;;;19.50;48.50;;;;;;5114511;28;20451;-57
2023/05/29 01:00:38;;;;;;;4.83;2.80;;;19.40;48.40;;;;;;5113565;28;20993;-56
2023/05/29 01:03:07;;;;;;;9.83;2.90;;;19.40;48.60;;;;;;5114025;28;20482;-56
2023/05/29 01:05:36;;;;;;;3.93;3.10;;;19.30;48.70;;;;;;5113970;28;20539;-56
2023/05/29 01:08:03;;;;;;;3.50;2.73;;;19.30;49.10;;;;;;5113906;28;20442;-56
2023/05/29 01:10:31;;;;;;;6.03;3.23;;;19.30;49.20;;;;;;5113539;28;20479;-56
2023/05/29 01:13:04;;;;;;;7.63;2.93;;;19.20;49.30;;;;;;5113854;28;20480;-56
2023/05/29 01:15:43;;;;;;;2.83;2.57;;;19.20;49.50;;;;;;5113774;28;20487;-56
2023/05/29 01:18:24;;;;;;;5.10;3.20;;;19.10;49.80;;;;;;5113869;28;20430;-56
2023/05/29 01:20:58;;;;;;;4.83;3.13;;;19.10;50.00;;;;;;5113798;28;20476;-56
2023/05/29 01:24:02;;;;;;;4.97;3.13;;;19.00;50.10;;;;;;5113817;28;20928;-56
2023/05/29 01:26:46;;;;;;;5.60;3.10;;;19.00;50.40;;;;;;5113642;28;20498;-57
2023/05/29 01:29:15;;;;;;;6.40;3.47;;;18.90;50.90;;;;;;5113706;28;20419;-57
2023/05/29 01:31:43;;;;;;;3.43;3.13;;;18.90;51.00;;;;;;5113187;28;20852;-57
2023/05/29 01:34:10;;;;;;;3.93;2.80;;;18.80;51.00;;;;;;5113668;28;20446;-57
2023/05/29 01:36:37;;;;;;;6.53;2.63;;;18.80;51.10;;;;;;5113728;28;20474;-57
2023/05/29 01:39:05;;;;;;;5.13;3.40;;;18.80;51.20;;;;;;5113753;28;20443;-57
2023/05/29 01:41:33;;;;;;;4.63;2.90;;;18.70;51.60;;;;;;5117438;28;20446;-57
2023/05/29 01:44:03;;;;;;;3.70;2.97;;;18.70;51.60;;;;;;5117674;28;20454;-57
2023/05/29 01:46:30;;;;;;;3.97;3.00;;;18.70;51.60;;;;;;5117585;28;20470;-57
2023/05/29 01:48:57;;;;;;;6.50;3.00;;;18.70;51.70;;;;;;5117586;28;20442;-57
2023/05/29 01:51:24;;;;;;;6.10;3.33;;;18.60;51.80;;;;;;5117670;27;20481;-57
2023/05/29 01:53:50;;;;;;;4.73;3.30;;;18.60;52.00;;;;;;5118342;28;20442;-57
2023/05/29 01:56:17;;;;;;;7.10;3.90;;;18.60;52.20;;;;;;5117289;28;20469;-57
2023/05/29 01:58:45;;;;;;;7.53;4.10;;;18.50;52.30;;;;;;5117520;28;20446;-57
2023/05/29 02:01:13;;;;;;;5.97;3.57;;;18.50;52.60;;;;;;5117561;27;20470;-57
2023/05/29 02:03:39;;;;;;;4.80;3.93;;;18.50;52.80;;;;;;5117266;28;20453;-57
2023/05/29 02:06:07;;;;;;;7.57;3.83;;;18.40;53.00;;;;;;5117300;28;20466;-57
2023/05/29 02:08:33;;;;;;;6.43;4.30;;;18.40;53.20;;;;;;5117242;28;20483;-57
2023/05/29 02:11:00;;;;;;;5.57;4.10;;;18.30;53.60;;;;;;5116780;28;20486;-57
2023/05/29 02:13:27;;;;;;;8.73;4.83;;;18.30;54.00;;;;;;5117225;28;20816;-57
2023/05/29 02:15:53;;;;;;;7.00;4.67;;;18.30;54.40;;;;;;5117066;28;20519;-57
2023/05/29 02:18:21;;;;;;;5.87;4.53;;;18.20;54.60;;;;;;5117873;28;20449;-57
2023/05/29 02:20:48;;;;;;;6.53;4.40;;;18.10;54.60;;;;;;5116695;28;20450;-57
2023/05/29 02:23:15;;;;;;;7.50;5.47;;;18.10;54.90;;;;;;5116614;28;20864;-57
2023/05/29 02:25:42;;;;;;;7.30;4.77;;;18.10;55.10;;;;;;5116792;28;20553;-57
2023/05/29 02:28:09;;;;;;;11.03;4.67;;;18.10;55.30;;;;;;5116572;28;20423;-57
2023/05/29 02:30:36;;;;;;;8.33;4.90;;;18.00;55.30;;;;;;5116811;28;20446;-57
2023/05/29 02:33:03;;;;;;;12.80;4.77;;;18.00;55.40;;;;;;5116805;28;20451;-57
2023/05/29 02:35:31;;;;;;;9.60;4.53;;;18.00;55.60;;;;;;5116676;28;20470;-57
2023/05/29 02:37:58;;;;;;;5.70;4.53;;;17.90;55.60;;;;;;5116745;28;20443;-57
2023/05/29 02:40:24;;;;;;;9.43;4.27;;;17.90;55.70;;;;;;5116871;28;20443;-57
2023/05/29 02:42:51;;;;;;;7.17;3.83;;;17.80;55.70;;;;;;5116679;28;20439;-57
2023/05/29 02:45:18;;;;;;;9.00;4.23;;;17.80;55.90;;;;;;5116709;28;20530;-57
2023/05/29 02:47:45;;;;;;;8.43;3.70;;;17.70;55.90;;;;;;5116661;28;20455;-57
2023/05/29 02:50:14;;;;;;;10.67;3.43;;;17.70;55.70;;;;;;5116582;28;20488;-57
2023/05/29 02:52:42;;;;;;;6.83;3.43;;;17.60;55.60;;;;;;5115390;28;20486;-57
2023/05/29 02:55:09;;;;;;;6.30;3.27;;;17.60;55.60;;;;;;5116504;28;20471;-57
2023/05/29 02:57:36;;;;;;;10.67;4.07;;;17.50;55.40;;;;;;5116572;28;20447;-57
2023/05/29 03:00:07;;;;;;;8.63;3.37;;;17.50;55.40;;;;;;5116249;28;20450;-57
2023/05/29 03:02:34;;;;;;;12.27;3.90;;;17.50;55.30;;;;;;5118002;28;20423;-57
2023/05/29 03:05:01;;;;;;;5.67;2.93;;;17.40;55.10;;;;;;5118575;28;20508;-57
2023/05/29 03:07:27;;;;;;;7.97;2.80;;;17.40;55.10;;;;;;5118057;28;20443;-57
2023/05/29 03:09:56;;;;;;;8.13;3.27;;;17.30;55.30;;;;;;5116076;28;20451;-57
2023/05/29 03:12:24;;;;;;;8.17;3.17;;;17.30;55.40;;;;;;5115584;28;20482;-57
2023/05/29 03:14:51;;;;;;;17.40;4.20;;;17.30;55.10;;;;;;5115925;28;20899;-56
2023/05/29 03:17:18;;;;;;;7.07;3.23;;;17.30;55.00;;;;;;5115870;28;20451;-56
2023/05/29 03:19:45;;;;;;;9.10;2.90;;;17.20;55.10;;;;;;5115859;28;20466;-56
2023/05/29 03:22:11;;;;;;;10.00;3.30;;;17.20;55.50;;;;;;5115839;28;20470;-57
2023/05/29 03:24:38;;;;;;;8.27;2.53;;;17.20;56.00;;;;;;5116020;28;20443;-57
2023/05/29 03:27:06;;;;;;;7.47;2.60;;;17.20;55.30;;;;;;5115645;28;20512;-57
2023/05/29 03:29:33;;;;;;;8.00;2.70;;;17.20;55.40;;;;;;5115679;28;20450;-57
2023/05/29 03:32:00;;;;;;;7.03;2.73;;;17.10;55.50;;;;;;5115905;28;20483;-57
2023/05/29 03:34:27;;;;;;;5.83;2.40;;;17.10;55.40;;;;;;5115681;28;20813;-57
2023/05/29 03:36:54;;;;;;;9.90;3.20;;;17.00;55.70;;;;;;5115189;28;20498;-57
2023/05/29 03:39:21;;;;;;;9.37;3.70;;;17.00;55.80;;;;;;5115525;28;20458;-57
2023/05/29 03:41:47;;;;;;;9.70;3.33;;;17.00;55.80;;;;;;5115417;28;20550;-57
2023/05/29 03:44:15;;;;;;;11.23;3.40;;;17.00;55.80;;;;;;5115566;28;20454;-57
2023/05/29 03:46:42;;;;;;;11.70;3.00;;;17.00;55.90;;;;;;5114984;28;20976;-57
2023/05/29 03:49:09;;;;;;;7.60;2.90;;;17.00;56.10;;;;;;5115241;28;20454;-57
2023/05/29 03:51:36;;;;;;;7.27;3.03;;;16.90;56.10;;;;;;5114798;28;21110;-57
2023/05/29 03:54:03;;;;;;;6.23;2.17;;;16.90;56.00;;;;;;5115217;28;20443;-57
2023/05/29 03:56:30;;;;;;;7.63;3.07;;;16.90;56.00;;;;;;5114744;28;20980;-57
2023/05/29 03:58:56;;;;;;;11.23;3.40;;;16.90;56.00;;;;;;5115175;28;20451;-57
2023/05/29 04:01:24;;;;;;;9.23;2.57;;;16.80;55.90;;;;;;5114685;28;20482;-57
2023/05/29 04:03:51;;;;;;;9.83;2.60;;;16.80;56.20;;;;;;5114047;28;20443;-57
2023/05/29 04:06:18;;;;;;;9.00;3.07;;;16.70;56.40;;;;;;5114975;28;20466;-57
2023/05/29 04:08:45;;;;;;;10.53;2.93;;;16.70;56.40;;;;;;5114691;28;21019;-57
2023/05/29 04:11:13;;;;;;;11.43;3.20;;;16.80;56.40;;;;;;5114473;28;20853;-57
2023/05/29 04:13:40;;;;;;;5.37;2.57;;;16.70;56.30;;;;;;5114956;28;20442;-57
2023/05/29 04:16:07;;;;;;;7.23;3.10;;;16.70;56.40;;;;;;5114893;28;20463;-57
2023/05/29 04:18:35;;;;;;;6.90;2.40;;;16.70;56.40;;;;;;5114778;28;20451;-57
2023/05/29 04:21:02;;;;;;;17.13;3.27;;;16.70;56.30;;;;;;5114956;28;20447;-57
2023/05/29 04:23:29;;;;;;;7.77;2.73;;;16.70;56.60;;;;;;5114966;28;20496;-57
2023/05/29 04:25:55;;;;;;;4.87;1.63;;;16.70;56.70;;;;;;5114906;28;20467;-57
2023/05/29 04:28:23;;;;;;;10.13;2.90;;;16.60;56.70;;;;;;5114659;28;20458;-57
2023/05/29 04:30:50;;;;;;;10.40;2.60;;;16.60;56.60;;;;;;5114184;28;20447;-57
2023/05/29 04:33:18;;;;;;;9.40;2.40;;;16.60;56.60;;;;;;5114376;28;20482;-57
2023/05/29 04:35:48;;;;;;;9.87;3.00;;;16.60;56.80;;;;;;5113997;28;20459;-57
2023/05/29 04:38:15;;;;;;;8.60;2.40;;;16.60;56.80;;;;;;5114142;28;20453;-57
2023/05/29 04:40:43;;;;;;;6.80;2.70;;;16.70;56.90;;;;;;5114006;28;20997;-57
2023/05/29 04:43:10;;;;;;;7.53;2.53;;;16.70;57.10;;;;;;5114270;28;20447;-57
2023/05/29 04:45:37;;;;;;;10.77;2.47;;;16.60;57.10;;;;;;5114052;28;20474;-57
2023/05/29 04:48:04;;;;;;;8.00;2.57;;;16.70;57.20;;;;;;5114351;28;20451;-57
2023/05/29 04:50:32;;;;;;;8.80;3.10;;;16.70;57.30;;;;;;5114107;28;20443;-57
2023/05/29 04:53:00;;;;;;;9.77;3.47;;;16.70;57.40;;;;;;5113776;28;21009;-57
2023/05/29 04:55:27;;;;;;;9.70;3.10;;;16.60;57.80;;;;;;5113998;28;20497;-57
2023/05/29 04:57:54;;;;;;;11.17;3.30;;;16.60;57.70;;;;;;5114143;28;20447;-57
2023/05/29 05:00:21;;;;;;;9.13;2.90;;;16.60;57.60;;;;;;5113974;28;20449;-57
2023/05/29 05:02:50;;;;;;;11.97;2.70;;;16.60;57.60;;;;;;5113807;28;20936;-57
2023/05/29 05:05:17;;;;;;;10.07;3.13;;;16.70;57.60;;;;;;5114026;28;20473;-57
2023/05/29 05:07:44;;;;;;;6.70;2.47;;;16.70;57.60;;;;;;5114100;28;20451;-57
2023/05/29 05:10:12;;;;;;;10.63;2.53;;;16.70;57.70;;;;;;5114049;28;20451;-57
2023/05/29 05:12:39;;;;;;;8.17;3.03;;;16.70;58.00;;;;;;5113923;28;20522;-57
2023/05/29 05:15:07;;;;;;;9.03;3.43;;;16.70;58.00;;;;;;5113474;28;20499;-57
2023/05/29 05:17:34;;;;;;;8.40;3.13;;;16.70;58.10;;;;;;5113886;28;20447;-57
2023/05/29 05:20:00;;;;;;;6.13;2.57;;;16.70;58.00;;;;;;5113776;28;20822;-57
2023/05/29 05:22:27;;;;;;;9.00;2.63;;;16.70;58.10;;;;;;5113747;28;20443;-57
2023/05/29 05:24:54;;;;;;;12.80;2.40;;;16.70;58.30;;;;;;5113712;28;20447;-57
2023/05/29 05:27:22;;;;;;;8.27;3.03;;;16.70;58.40;;;;;;5113787;28;20857;-56
2023/05/29 05:29:49;;;;;;;7.80;2.70;;;16.80;58.20;;;;;;5113749;28;20517;-57
2023/05/29 05:32:15;;;;;;;11.10;3.20;;;16.90;58.30;;;;;;5113673;28;20475;-57
2023/05/29 05:34:42;;;;;;;5.27;2.03;;;16.90;58.40;;;;;;5113314;28;20482;-57
2023/05/29 05:37:09;;;;;;;4.37;2.60;;;16.90;58.20;;;;;;5113554;28;20474;-57
2023/05/29 05:39:36;;;;;;;5.93;2.50;;;17.00;58.30;;;;;;5113644;28;20508;-57
2023/05/29 05:42:03;;;;;;;7.63;3.17;;;17.00;58.20;;;;;;5113320;28;20844;-57
2023/05/29 05:44:31;;;;;;;9.03;3.83;;;17.00;58.10;;;;;;5114018;28;20490;-57
2023/05/29 05:46:58;;;;;;;12.80;3.20;;;17.10;58.10;;;;;;5113281;28;20980;-57
2023/05/29 05:49:24;;;;;;;7.03;2.43;;;17.10;57.90;;;;;;5113215;28;20462;-57
2023/05/29 05:51:51;;;;;;;10.47;2.50;;;17.10;57.90;;;;;;5113114;28;20971;-57
2023/05/29 05:54:18;;;;;;;15.27;3.10;;;17.10;57.90;;;;;;5113647;28;20471;-57
2023/05/29 05:56:44;;;;;;;10.53;2.80;;;17.10;58.00;;;;;;5113148;28;20999;-57
2023/05/29 05:59:11;;;;;;;9.23;2.93;;;17.20;58.00;;;;;;5113519;28;20462;-57
2023/05/29 06:01:41;;;;;;;8.70;3.10;;;17.20;58.00;;;;;;5113071;28;20438;-57
2023/05/29 06:04:08;;;;;;;13.00;3.53;;;17.20;57.90;;;;;;5113212;28;20964;-57
2023/05/29 06:06:35;;;;;;;10.37;3.53;;;17.30;57.80;;;;;;5112864;28;21049;-57
2023/05/29 06:09:04;;;;;;;8.30;2.80;;;17.40;57.50;;;;;;5113404;28;20791;-57
2023/05/29 06:11:31;;;;;;;5.70;2.57;;;17.50;57.50;;;;;;5113058;28;20777;-57
2023/05/29 06:13:58;;;;;;;12.93;3.53;;;17.50;57.50;;;;;;5113016;28;21067;-57
2023/05/29 06:16:25;;;;;;;10.20;2.93;;;17.50;57.00;;;;;;5113236;28;20466;-57
2023/05/29 06:18:53;;;;;;;9.07;3.10;;;17.60;57.20;;;;;;5113247;28;20794;-57
2023/05/29 06:21:20;;;;;;;7.17;2.37;;;17.60;56.70;;;;;;5113236;28;20439;-57
2023/05/29 06:23:46;;;;;;;8.60;3.13;;;17.70;56.90;;;;;;5112934;28;20917;-57
2023/05/29 06:26:13;;;;;;;9.13;2.17;;;17.80;56.90;;;;;;5113227;28;20831;-57
2023/05/29 06:28:40;;;;;;;15.53;3.50;;;17.90;56.80;;;;;;5116922;28;20450;-57
2023/05/29 06:31:06;;;;;;;6.03;2.83;;;18.00;56.70;;;;;;5116856;28;20453;-57
2023/05/29 06:33:33;;;;;;;8.83;3.13;;;18.10;56.50;;;;;;5116705;28;20478;-57
2023/05/29 06:36:01;;;;;;;11.77;2.97;;;18.20;56.80;;;;;;5116619;28;20539;-57
2023/05/29 06:38:28;;;;;;;9.43;2.50;;;18.30;56.50;;;;;;5116705;28;20443;-57
2023/05/29 06:40:55;;;;;;;7.30;2.30;;;18.50;56.40;;;;;;5117218;28;20450;-57
2023/05/29 06:43:21;;;;;;;8.03;3.00;;;18.50;56.00;;;;;;5116710;28;20458;-57
2023/05/29 06:45:48;;;;;;;12.57;3.33;;;18.60;55.70;;;;;;5116483;28;20467;-57
2023/05/29 06:48:15;;;;;;;4.90;2.50;;;18.80;55.90;;;;;;5116574;28;20450;-57
2023/05/29 06:50:41;;;;;;;9.50;3.40;;;18.80;55.70;;;;;;5116382;28;20447;-57
2023/05/29 06:53:09;;;;;;;7.40;2.87;;;18.90;55.20;;;;;;5116319;28;20482;-57
2023/05/29 06:55:36;;;;;;;7.97;3.20;;;19.00;55.20;;;;;;5116295;28;20502;-57
2023/05/29 06:58:03;;;;;;;9.67;2.90;;;19.20;55.10;;;;;;5116437;28;20443;-57
2023/05/29 07:00:29;;;;;;;9.83;2.50;;;19.30;54.70;;;;;;5116294;28;20807;-57
2023/05/29 07:02:56;;;;;;;10.80;3.03;;;19.40;54.70;;;;;;5116431;28;20447;-57
2023/05/29 07:05:23;;;;;;;6.43;2.53;;;19.50;54.60;;;;;;5116145;28;20477;-57
2023/05/29 07:07:50;;;;;;;8.70;2.90;;;19.60;54.40;;;;;;5116218;28;20457;-57
2023/05/29 07:10:18;;;;;;;8.93;3.00;;;19.70;53.80;;;;;;5115726;28;20450;-57
2023/05/29 07:12:44;;;;;;;7.83;3.47;;;19.90;54.20;;;;;;5115985;28;20550;-57
2023/05/29 07:15:11;;;;;;;8.73;3.37;;;20.00;53.70;;;;;;5115771;28;20466;-57
2023/05/29 07:17:38;;;;;;;8.00;2.50;;;20.20;53.50;;;;;;5115938;28;20450;-57
2023/05/29 07:20:07;;;;;;;9.90;3.20;;;20.30;53.10;;;;;;5115975;28;20447;-57
2023/05/29 07:22:34;;;;;;;9.23;2.43;;;20.40;52.60;;;;;;5115895;28;20439;-57
2023/05/29 07:25:00;;;;;;;11.07;3.47;;;20.60;52.30;;;;;;5115777;28;20449;-57
2023/05/29 07:27:29;;;;;;;8.53;2.67;;;20.70;51.70;;;;;;5115870;28;20443;-57
2023/05/29 07:29:55;;;;;;;9.10;3.20;;;20.90;51.10;;;;;;5115683;28;20448;-57
2023/05/29 07:32:22;;;;;;;9.33;3.70;;;21.10;51.00;;;;;;5115458;28;20447;-57
2023/05/29 07:34:49;;;;;;;6.30;2.50;;;21.30;50.50;;;;;;5115679;28;20534;-57
2023/05/29 07:37:18;;;;;;;9.10;2.50;;;21.50;50.80;;;;;;5115539;28;20443;-56
2023/05/29 07:39:45;;;;;;;6.87;3.00;;;21.60;49.90;;;;;;5115623;28;20459;-56
2023/05/29 07:42:12;;;;;;;6.50;3.00;;;21.80;50.00;;;;;;5115549;28;20451;-56
2023/05/29 07:44:41;;;;;;;7.37;2.90;;;21.90;49.10;;;;;;5115101;28;20829;-56
2023/05/29 07:47:08;;;;;;;5.20;2.50;;;21.90;49.40;;;;;;5115300;28;20838;-56
2023/05/29 07:49:35;;;;;;;7.60;2.70;;;22.10;49.30;;;;;;5115861;28;20485;-56
2023/05/29 07:52:02;;;;;;;7.87;3.20;;;22.20;49.00;;;;;;5115305;28;20447;-56
2023/05/29 07:54:28;;;;;;;4.97;2.60;;;22.30;48.70;;;;;;5114826;28;20482;-56
2023/05/29 07:56:55;;;;;;;9.03;3.00;;;22.40;48.20;;;;;;5115084;28;20463;-56
2023/05/29 07:59:23;;;;;;;7.23;2.30;;;22.50;48.30;;;;;;5115071;28;20538;-56
2023/05/29 08:01:51;;;;;;;5.77;2.30;;;22.60;48.40;;;;;;5115136;28;20537;-56
2023/05/29 08:04:18;;;;;;;10.07;2.70;;;22.80;47.80;;;;;;5115116;28;20563;-56
2023/05/29 08:06:44;;;;;;;8.50;3.90;;;22.90;47.20;;;;;;5114865;28;20470;-56
2023/05/29 08:09:11;;;;;;;7.00;2.43;;;23.10;47.20;;;;;;5114843;28;20447;-56
2023/05/29 08:11:38;;;;;;;7.47;2.63;;;23.20;46.70;;;;;;5114824;28;20472;-56
2023/05/29 08:14:05;;;;;;;9.57;3.47;;;23.40;46.20;;;;;;5115107;28;20479;-56
2023/05/29 08:16:32;;;;;;;6.27;3.10;;;23.60;46.40;;;;;;5114485;28;20996;-56
2023/05/29 08:19:00;;;;;;;7.20;3.07;;;23.70;45.90;;;;;;5115970;28;20443;-56
2023/05/29 08:21:27;;;;;;;9.53;2.77;;;23.80;45.90;;;;;;5115737;28;20447;-56
2023/05/29 08:23:53;;;;;;;7.43;2.60;;;23.90;45.60;;;;;;5115230;28;20443;-56
2023/05/29 08:26:20;;;;;;;5.77;2.67;;;24.10;45.20;;;;;;5114396;28;20473;-56
2023/05/29 08:28:47;;;;;;;5.53;2.33;;;24.30;44.80;;;;;;5114997;28;20546;-56
2023/05/29 08:31:14;;;;;;;5.07;2.50;;;24.30;43.60;;;;;;5114810;28;20451;-57
2023/05/29 08:33:40;;;;;;;10.37;3.43;;;24.50;43.40;;;;;;5114760;28;20847;-57
2023/05/29 08:36:09;;;;;;;6.53;3.00;;;24.70;43.40;;;;;;5114959;28;20466;-57
2023/05/29 08:38:36;;;;;;;8.40;3.13;;;24.80;43.20;;;;;;5114500;28;20447;-55
2023/05/29 08:41:03;;;;;;;6.07;3.17;;;24.90;43.10;;;;;;5114376;28;20446;-55
2023/05/29 08:43:32;;;;;;;11.10;3.20;;;25.00;43.00;;;;;;5114037;28;20982;-55
2023/05/29 08:46:01;;;;;;;8.53;2.83;;;25.10;42.70;;;;;;5113925;28;21010;-55
2023/05/29 08:48:29;;;;;;;5.33;2.50;;;25.20;42.20;;;;;;5114408;28;20449;-55
2023/05/29 08:50:57;;;;;;;10.47;4.00;;;25.30;42.30;;;;;;5113734;28;20931;-55
2023/05/29 08:53:26;;;;;;;7.50;3.50;;;25.40;41.80;;;;;;5113775;28;21018;-55
2023/05/29 08:55:55;;;;;;;11.30;3.70;;;25.40;41.70;;;;;;5114112;28;20490;-56
2023/05/29 08:58:22;;;;;;;10.10;3.13;;;25.50;41.90;;;;;;5114070;28;20525;-55
2023/05/29 09:00:50;;;;;;;11.93;2.80;;;25.60;41.40;;;;;;5113976;28;20446;-56
2023/05/29 09:03:17;;;;;;;8.87;3.50;;;25.70;41.50;;;;;;5113760;28;20944;-55
2023/05/29 09:05:46;;;;;;;7.23;2.70;;;25.90;41.10;;;;;;5114140;28;20477;-56
2023/05/29 09:08:15;;;;;;;8.23;3.13;;;26.00;40.90;;;;;;5113925;28;20553;-56
2023/05/29 09:10:44;;;;;;;5.37;3.10;;;26.10;40.80;;;;;;5113719;28;20467;-56
2023/05/29 09:13:11;;;;;;;7.63;2.50;;;26.20;40.50;;;;;;5113909;28;20831;-57
2023/05/29 09:15:39;;;;;;;6.00;2.83;;;26.30;40.00;;;;;;5113937;28;20474;-57
2023/05/29 09:18:07;;;;;;;7.93;3.00;;;26.40;40.00;;;;;;5113901;28;20453;-57
2023/05/29 09:20:34;;;;;;;8.90;3.10;;;26.50;39.60;;;;;;5113491;28;20913;-57
2023/05/29 09:23:03;;;;;;;5.97;2.97;;;26.60;39.60;;;;;;5113796;28;20454;-58
2023/05/29 09:25:32;;;;;;;8.83;3.50;;;26.70;39.90;;;;;;5113720;28;20909;-57
2023/05/29 09:28:02;;;;;;;8.70;3.40;;;26.80;39.60;;;;;;5113711;28;20439;-57
2023/05/29 09:30:36;;;;;;;9.03;3.40;;;26.90;39.00;;;;;;5113833;28;20433;-57
2023/05/29 09:33:04;;;;;;;8.80;3.57;;;26.70;36.70;;;;;;5113658;28;20470;-56
2023/05/29 09:35:35;;;;;;;13.93;4.33;;;26.50;38.60;;;;;;5113559;28;20463;-56
2023/05/29 09:38:02;;;;;;;9.40;3.80;;;26.30;39.10;;;;;;5113652;28;20458;-56
2023/05/29 09:40:31;;;;;;;9.00;3.50;;;26.30;39.00;;;;;;5113566;28;20451;-57
2023/05/29 09:43:07;;;;;;;5.70;3.13;;;26.40;39.00;;;;;;5113603;28;20470;-57
2023/05/29 09:45:37;;;;;;;12.13;3.70;;;26.50;38.70;;;;;;5113577;28;20458;-57
2023/05/29 09:48:04;;;;;;;9.87;3.80;;;26.70;40.20;;;;;;5113581;28;20447;-57
2023/05/29 09:50:31;;;;;;;12.13;4.40;;;26.90;39.30;;;;;;5113508;28;20447;-57
2023/05/29 09:52:58;;;;;;;9.73;3.60;;;27.20;39.30;;;;;;5113362;28;20447;-57
2023/05/29 09:55:26;;;;;;;17.57;4.30;;;27.50;38.40;;;;;;5113394;28;20490;-57
2023/05/29 09:57:54;;;;;;;19.97;4.33;;;27.80;38.00;;;;;;5113050;28;20830;-57
2023/05/29 10:00:23;;;;;;;14.97;4.03;;;28.00;37.40;;;;;;5113480;28;20493;-56
2023/05/29 10:02:50;;;;;;;15.50;4.00;;;28.20;36.90;;;;;;5116288;28;20450;-56
2023/05/29 10:05:17;;;;;;;8.43;3.40;;;28.40;36.70;;;;;;5117133;28;21026;-56
2023/05/29 10:07:47;;;;;;;19.97;5.20;;;28.50;36.70;;;;;;5117409;28;20442;-56
2023/05/29 10:10:15;;;;;;;14.80;4.93;;;28.80;36.30;;;;;;5116979;28;20790;-56
2023/05/29 10:12:45;;;;;;;10.87;4.50;;;28.90;36.10;;;;;;5117282;28;20475;-56
2023/05/29 10:15:14;;;;;;;10.10;4.53;;;29.00;36.00;;;;;;5117014;28;20486;-56
2023/05/29 10:17:50;;;;;;;7.07;4.30;;;29.20;35.70;;;;;;5117228;28;20474;-56
2023/05/29 10:20:18;;;;;;;10.73;3.83;;;29.50;34.40;;;;;;5116709;28;20901;-56
2023/05/29 10:22:48;;;;;;;9.43;3.40;;;29.60;34.10;;;;;;5116967;28;20517;-57
2023/05/29 10:25:18;;;;;;;16.37;4.37;;;29.90;32.70;;;;;;5116958;28;20458;-56
2023/05/29 10:27:45;;;;;;;11.70;3.63;;;30.30;33.40;;;;;;5116905;28;20446;-56
2023/05/29 10:30:22;;;;;;;11.67;4.23;;;30.50;31.90;;;;;;5116907;28;20472;-57
2023/05/29 10:33:09;;;;;;;11.70;4.43;;;30.90;32.70;;;;;;5116728;28;20437;-57
2023/05/29 10:35:45;;;;;;;9.33;3.80;;;31.10;31.30;;;;;;5116717;28;20450;-58
2023/05/29 10:38:15;;;;;;;10.43;4.27;;;31.20;31.00;;;;;;5116846;28;20483;-57
2023/05/29 10:40:41;;;;;;;13.87;4.70;;;31.20;31.40;;;;;;5116709;28;20442;-58
2023/05/29 10:43:10;;;;;;;8.63;3.73;;;31.60;31.00;;;;;;5116761;28;20434;-58
2023/05/29 10:45:53;;;;;;;7.97;3.80;;;32.00;29.40;;;;;;5116599;28;20466;-55
2023/05/29 10:48:43;;;;;;;7.97;3.80;;;32.50;29.10;;;;;;5116234;28;20814;-56
2023/05/29 10:51:25;;;;;;;8.37;3.80;;;32.80;29.40;;;;;;5116666;28;20426;-56
2023/05/29 10:53:52;;;;;;;9.03;3.90;;;33.20;28.50;;;;;;5116391;28;20466;-56
2023/05/29 10:56:23;;;;;;;9.00;3.67;;;33.60;28.10;;;;;;5116420;28;20469;-56
2023/05/29 10:58:54;;;;;;;10.40;4.00;;;34.00;27.00;;;;;;5116395;28;20427;-56
2023/05/29 11:01:22;;;;;;;7.87;3.30;;;34.20;26.20;;;;;;5116374;28;20895;-56
2023/05/29 11:03:52;;;;;;;9.47;4.07;;;34.10;26.20;;;;;;5116409;28;20446;-56
2023/05/29 11:06:20;;;;;;;7.97;4.30;;;34.00;25.70;;;;;;5116167;28;20542;-55
2023/05/29 11:08:48;;;;;;;8.30;3.97;;;33.70;27.20;;;;;;5116244;28;20850;-57
2023/05/29 11:11:15;;;;;;;8.70;4.03;;;33.40;26.90;;;;;;5115914;28;20477;-56
2023/05/29 11:13:52;;;;;;;9.53;3.50;;;33.10;27.00;;;;;;5115650;28;20477;-56
2023/05/29 11:16:21;;;;;;;9.63;4.37;;;32.90;26.80;;;;;;5116712;28;20473;-56
2023/05/29 11:18:50;;;;;;;9.27;4.30;;;32.80;27.50;;;;;;5118735;28;20446;-56
2023/05/29 11:21:34;;;;;;;6.37;3.87;;;32.90;27.70;;;;;;5117855;28;20846;-57
2023/05/29 11:24:04;;;;;;;10.03;4.17;;;32.90;27.90;;;;;;5115170;27;20450;-56
2023/05/29 11:26:32;;;;;;;5.70;3.17;;;32.90;26.80;;;;;;5115870;28;20476;-56
2023/05/29 11:29:00;;;;;;;10.10;3.40;;;33.10;27.00;;;;;;5115571;28;20541;-56
2023/05/29 11:31:30;;;;;;;6.10;3.37;;;33.50;26.60;;;;;;5115850;28;20460;-56
2023/05/29 11:34:02;;;;;;;7.87;3.30;;;33.70;27.10;;;;;;5115818;28;20470;-56
2023/05/29 11:36:30;;;;;;;9.50;3.50;;;34.00;26.10;;;;;;5115628;28;20487;-56
2023/05/29 11:38:57;;;;;;;6.60;3.40;;;34.20;25.80;;;;;;5115527;28;20450;-56
2023/05/29 11:41:25;;;;;;;7.70;3.60;;;34.60;24.80;;;;;;5115633;28;20454;-56
2023/05/29 11:43:59;;;;;;;7.40;3.97;;;35.00;25.70;;;;;;5115513;28;20533;-56
2023/05/29 11:46:28;;;;;;;11.97;4.00;;;35.20;25.80;;;;;;5115341;28;20474;-56
2023/05/29 11:48:54;;;;;;;7.80;3.87;;;35.20;25.70;;;;;;5115631;28;20450;-56
2023/05/29 11:51:22;;;;;;;9.00;3.93;;;35.30;25.60;;;;;;5115524;28;20515;-57
2023/05/29 11:53:52;;;;;;;15.13;3.63;;;35.40;24.80;;;;;;5115166;28;20457;-57
2023/05/29 11:56:20;;;;;;;13.30;4.03;;;35.50;24.10;;;;;;5115582;28;20466;-56
2023/05/29 11:58:48;;;;;;;9.33;4.17;;;35.80;23.10;;;;;;5115187;28;20446;-56
2023/05/29 12:01:18;;;;;;;5.67;3.30;;;36.00;24.00;;;;;;5115086;28;20299;-56
2023/05/29 12:03:45;;;;;;;6.50;3.50;;;36.20;24.00;;;;;;5115412;28;20185;-56
2023/05/29 12:06:12;;;;;;;30.33;5.70;;;36.30;23.80;;;;;;5115025;28;20252;-56
2023/05/29 12:08:41;;;;;;;5.80;3.53;;;36.30;23.90;;;;;;5115045;28;20520;-56
2023/05/29 12:11:08;;;;;;;87.57;9.73;;;36.70;23.70;;;;;;5114774;28;20216;-56
2023/05/29 12:13:35;;;;;;;13.93;4.27;;;37.00;23.20;;;;;;5114801;28;20253;-56
2023/05/29 12:16:05;;;;;;;77.65;9.63;;;37.30;22.30;;;;;;5114732;28;20227;-56
2023/05/29 12:18:33;;;;;;;482.38;38.97;;;37.50;21.80;;;;;;5115054;28;20273;-55
2023/05/29 12:21:02;;;;;;;8.18;3.72;;;37.60;21.60;;;;;;5114798;28;20201;-56
2023/05/29 12:23:29;;;;;;;10.83;3.87;;;37.30;21.10;;;;;;5114588;28;20296;-56
2023/05/29 12:25:59;;;;;;;6.78;3.83;;;37.40;21.60;;;;;;5114002;28;20600;-56
2023/05/29 12:28:26;;;;;;;7.87;3.53;;;37.50;21.10;;;;;;5114450;28;20696;-56
2023/05/29 12:31:00;;;;;;;11.23;3.80;;;37.40;21.20;;;;;;5114561;28;20204;-56
2023/05/29 12:33:29;;;;;;;11.07;4.30;;;37.50;21.40;;;;;;5114616;28;20193;-56
2023/05/29 12:35:56;;;;;;;8.33;3.50;;;37.50;21.40;;;;;;5114461;28;20224;-56
2023/05/29 12:38:24;;;;;;;8.10;3.40;;;37.20;22.00;;;;;;5114659;28;20236;-56
2023/05/29 12:40:52;;;;;;;312.67;27.20;;;37.20;22.50;;;;;;5114519;28;20291;-57
2023/05/29 12:43:20;;;;;;;40.20;7.10;;;37.20;22.80;;;;;;5114456;28;20201;-57
2023/05/29 12:45:46;;;;;;;327.33;27.10;;;37.20;22.70;;;;;;5113932;28;20303;-57
2023/05/29 12:48:13;;;;;;;13.55;4.53;;;37.30;22.30;;;;;;5114172;28;20435;-56